Terminal Aerodrome Forecast
Issued by NWS

Current Version | Previous Version | Text Only | Print | Product List | Glossary On
Versions: 1 2 3 4 5 6 7 8 9 10 11 12 13 14
000
FTUS43 KDTX 282321
TAFMBS
TAF
KMBS 282321Z 2900/2924 15007KT 6SM -SN SCT022 BKN040 OVC070
      TEMPO 2900/2903 2SM -SN BKN012 OVC022
     FM290400 17008KT P6SM BKN035 OVC060
     FM290700 18009KT 6SM -SN BKN030 OVC050
      TEMPO 2908/2911 2SM -SN BKN025 OVC040
     FM291100 19011KT P6SM BKN035 OVC080
     FM291800 20012G19KT P6SM BKN028 OVC040=

USA.gov is the U.S. government's official web portal to all federal, state and local government web resources and services.